Time;durP1;ratioP1;P1;durP2;ratioP2;P2;SDS_P1;SDS_P2;PMS_P1;PMS_P2;Temp;Humidity;BMP_temperature;BMP_pressure;BME280_temperature;BME280_humidity;BME280_pressure;Samples;Min_cycle;Max_cycle;Signal;HPM_P1;HPM_P2
2023/04/15 00:01:20;;;;;;;537.22;297.67;;;;;;;;;;5005134;28;20034;-56
2023/04/15 00:03:46;;;;;;;565.35;319.65;;;;;;;;;;4998467;28;20060;-56
2023/04/15 00:06:12;;;;;;;581.40;316.23;;;;;;;;;;4999361;28;20580;-57
2023/04/15 00:08:37;;;;;;;581.22;333.88;;;;;;;;;;5005327;28;20142;-55
2023/04/15 00:11:04;;;;;;;564.70;311.90;;;;;;;;;;5000819;28;20044;-56
2023/04/15 00:13:30;;;;;;;567.58;317.33;;;;;;;;;;4997584;28;20030;-54
2023/04/15 00:15:55;;;;;;;578.80;344.38;;;;;;;;;;5004852;28;20033;-56
2023/04/15 00:18:20;;;;;;;595.03;343.70;;;;;;;;;;5003199;28;20049;-54
2023/04/15 00:20:46;;;;;;;561.97;347.70;;;;;;;;;;4999913;28;20801;-56
2023/04/15 00:23:11;;;;;;;563.38;343.40;;;;;;;;;;5000359;28;20072;-56
2023/04/15 00:25:36;;;;;;;585.65;331.02;;;;;;;;;;4997453;28;20762;-55
2023/04/15 00:28:02;;;;;;;587.30;345.08;;;;;;;;;;5001429;28;20493;-56
2023/04/15 00:30:28;;;;;;;587.28;339.00;;;;;;;;;;4998476;28;20177;-57
2023/04/15 00:32:53;;;;;;;670.42;338.63;;;;;;;;;;4997378;28;20022;-57
2023/04/15 00:35:18;;;;;;;566.23;338.40;;;;;;;;;;5005472;28;20017;-57
2023/04/15 00:37:44;;;;;;;556.05;341.13;;;;;;;;;;5000823;28;20685;-57
2023/04/15 00:40:11;;;;;;;591.78;346.02;;;;;;;;;;4998381;28;20022;-56
2023/04/15 00:42:36;;;;;;;564.25;313.40;;;;;;;;;;5001347;28;20057;-56
2023/04/15 00:45:02;;;;;;;564.78;317.60;;;;;;;;;;4999246;28;20562;-55
2023/04/15 00:47:28;;;;;;;578.85;328.10;;;;;;;;;;5000467;28;20065;-57
2023/04/15 00:49:53;;;;;;;598.45;340.45;;;;;;;;;;4998822;28;20762;-56
2023/04/15 00:52:18;;;;;;;577.63;341.27;;;;;;;;;;5000031;28;20073;-57
2023/04/15 00:54:43;;;;;;;581.30;313.55;;;;;;;;;;4994902;28;20036;-57
2023/04/15 00:57:09;;;;;;;589.25;317.30;;;;;;;;;;4999627;28;20067;-57
2023/04/15 00:59:34;;;;;;;587.60;327.95;;;;;;;;;;5001177;28;20018;-56
2023/04/15 01:02:00;;;;;;;561.25;333.30;;;;;;;;;;4998803;28;20041;-57
2023/04/15 01:04:26;;;;;;;595.42;335.27;;;;;;;;;;5000080;28;20327;-56
2023/04/15 01:06:51;;;;;;;580.15;309.13;;;;;;;;;;5001410;28;20033;-57
2023/04/15 01:09:17;;;;;;;571.65;308.38;;;;;;;;;;5002205;28;20026;-57
2023/04/15 01:11:42;;;;;;;550.88;306.77;;;;;;;;;;4999003;28;20052;-57
2023/04/15 01:14:08;;;;;;;543.45;301.35;;;;;;;;;;4999297;28;20021;-56
2023/04/15 01:16:33;;;;;;;580.13;317.35;;;;;;;;;;4998776;28;20076;-56
2023/04/15 01:18:58;;;;;;;605.22;333.55;;;;;;;;;;4999634;28;20053;-56
2023/04/15 01:21:24;;;;;;;544.15;308.48;;;;;;;;;;4999212;28;20112;-57
2023/04/15 01:23:49;;;;;;;600.08;338.88;;;;;;;;;;5000042;28;20080;-55
2023/04/15 01:26:15;;;;;;;602.42;345.45;;;;;;;;;;4998154;28;20568;-56
2023/04/15 01:28:40;;;;;;;584.70;331.45;;;;;;;;;;4999997;28;20018;-54
2023/04/15 01:31:06;;;;;;;573.13;333.67;;;;;;;;;;4998038;28;20566;-57
2023/04/15 01:33:32;;;;;;;585.50;333.42;;;;;;;;;;4997485;28;20101;-56
2023/04/15 01:35:57;;;;;;;593.83;330.10;;;;;;;;;;4998347;28;20034;-56
2023/04/15 01:38:22;;;;;;;585.25;338.88;;;;;;;;;;4996756;28;20153;-56
2023/04/15 01:40:48;;;;;;;550.70;317.67;;;;;;;;;;5014469;28;20034;-56
2023/04/15 01:43:14;;;;;;;599.20;326.30;;;;;;;;;;5000387;28;20678;-57
2023/04/15 01:45:39;;;;;;;588.90;340.55;;;;;;;;;;4997520;28;20030;-56
2023/04/15 01:48:05;;;;;;;594.78;347.05;;;;;;;;;;5002741;28;20026;-56
2023/04/15 01:50:30;;;;;;;556.92;328.98;;;;;;;;;;4996620;28;20034;-56
2023/04/15 01:52:55;;;;;;;642.25;343.10;;;;;;;;;;4997822;28;20026;-56
2023/04/15 01:55:21;;;;;;;582.17;345.15;;;;;;;;;;4994685;28;20797;-57
2023/04/15 01:57:46;;;;;;;577.20;338.42;;;;;;;;;;5000890;28;20025;-57
2023/04/15 02:00:12;;;;;;;574.53;348.75;;;;;;;;;;4994895;28;20018;-57
2023/04/15 02:02:37;;;;;;;593.05;349.80;;;;;;;;;;4996897;28;20370;-56
2023/04/15 02:05:04;;;;;;;587.95;346.80;;;;;;;;;;4999254;28;20029;-57
2023/04/15 02:07:31;;;;;;;542.38;318.05;;;;;;;;;;4996980;28;20457;-55
2023/04/15 02:09:56;;;;;;;558.58;311.35;;;;;;;;;;4992559;28;20041;-56
2023/04/15 02:12:21;;;;;;;537.28;303.98;;;;;;;;;;4996137;28;20030;-56
2023/04/15 02:14:46;;;;;;;571.83;296.57;;;;;;;;;;4999851;28;20034;-56
2023/04/15 02:17:12;;;;;;;543.35;304.50;;;;;;;;;;5001192;28;20270;-55
2023/04/15 02:19:38;;;;;;;541.45;296.27;;;;;;;;;;4999021;28;20013;-56
2023/04/15 02:22:03;;;;;;;581.42;290.88;;;;;;;;;;4999592;28;20623;-56
2023/04/15 02:24:29;;;;;;;538.97;293.42;;;;;;;;;;4999122;28;20029;-56
2023/04/15 02:26:55;;;;;;;542.38;298.23;;;;;;;;;;4999429;28;20042;-56
2023/04/15 02:29:20;;;;;;;561.67;303.23;;;;;;;;;;4996938;28;20040;-57
2023/04/15 02:31:46;;;;;;;560.83;311.70;;;;;;;;;;4997084;28;20030;-56
2023/04/15 02:34:13;;;;;;;539.30;310.33;;;;;;;;;;4999888;28;20029;-57
2023/04/15 02:36:39;;;;;;;543.88;307.63;;;;;;;;;;4996316;28;20065;-55
2023/04/15 02:39:05;;;;;;;602.22;315.27;;;;;;;;;;4996548;28;20027;-55
2023/04/15 02:41:30;;;;;;;539.78;288.55;;;;;;;;;;4994331;28;20088;-56
2023/04/15 02:43:55;;;;;;;541.22;292.42;;;;;;;;;;4995732;28;20033;-56
2023/04/15 02:46:21;;;;;;;549.55;300.45;;;;;;;;;;4999665;28;20042;-56
2023/04/15 02:48:47;;;;;;;576.03;318.80;;;;;;;;;;5000924;28;20029;-57
2023/04/15 02:51:15;;;;;;;546.17;308.83;;;;;;;;;;5000779;28;20121;-56
2023/04/15 02:53:41;;;;;;;578.35;323.80;;;;;;;;;;4995932;28;20526;-56
2023/04/15 02:56:07;;;;;;;538.20;297.70;;;;;;;;;;4999474;28;20042;-56
2023/04/15 02:58:33;;;;;;;505.30;281.05;;;;;;;;;;5000337;28;20112;-56
2023/04/15 03:00:58;;;;;;;549.13;287.88;;;;;;;;;;4999076;28;20046;-56
2023/04/15 03:03:24;;;;;;;542.20;296.35;;;;;;;;;;5003999;28;20026;-55
2023/04/15 03:05:49;;;;;;;590.75;319.50;;;;;;;;;;5001176;28;20041;-57
2023/04/15 03:08:14;;;;;;;547.50;302.27;;;;;;;;;;5005746;28;20128;-57
2023/04/15 03:10:40;;;;;;;529.47;282.98;;;;;;;;;;5001494;28;20265;-57
2023/04/15 03:13:05;;;;;;;653.03;291.25;;;;;;;;;;4998214;28;20093;-57
2023/04/15 03:15:31;;;;;;;521.70;285.23;;;;;;;;;;5004123;28;20041;-56
2023/04/15 03:17:57;;;;;;;531.30;287.05;;;;;;;;;;5003774;28;20036;-56
2023/04/15 03:20:22;;;;;;;545.97;294.77;;;;;;;;;;5001589;28;20033;-57
2023/04/15 03:22:48;;;;;;;539.90;306.80;;;;;;;;;;5000459;28;20629;-56
2023/04/15 03:25:13;;;;;;;543.88;311.15;;;;;;;;;;4994803;28;20018;-54
2023/04/15 03:27:38;;;;;;;563.92;312.42;;;;;;;;;;5001710;28;20017;-56
2023/04/15 03:30:04;;;;;;;527.50;299.42;;;;;;;;;;5005284;28;20056;-54
2023/04/15 03:32:29;;;;;;;587.08;297.80;;;;;;;;;;4998589;28;20030;-57
2023/04/15 03:34:54;;;;;;;543.78;310.90;;;;;;;;;;4995272;28;20088;-57
2023/04/15 03:37:20;;;;;;;549.60;302.80;;;;;;;;;;5000952;28;20530;-56
2023/04/15 03:39:45;;;;;;;563.30;291.38;;;;;;;;;;5001383;28;20017;-56
2023/04/15 03:42:10;;;;;;;520.10;306.98;;;;;;;;;;4998014;28;20145;-56
2023/04/15 03:44:36;;;;;;;550.20;316.83;;;;;;;;;;4998595;28;20057;-55
2023/04/15 03:47:01;;;;;;;515.67;294.23;;;;;;;;;;4997181;28;20034;-56
2023/04/15 03:49:26;;;;;;;518.92;302.67;;;;;;;;;;5001035;28;20022;-57
2023/04/15 03:51:52;;;;;;;560.63;297.83;;;;;;;;;;5000793;28;20038;-56
2023/04/15 03:54:17;;;;;;;537.65;287.33;;;;;;;;;;4997082;28;20590;-56
2023/04/15 03:56:42;;;;;;;518.67;291.52;;;;;;;;;;5003527;28;20029;-57
2023/04/15 03:59:07;;;;;;;603.65;314.17;;;;;;;;;;5000559;28;20037;-57
2023/04/15 04:01:33;;;;;;;541.95;308.65;;;;;;;;;;4998208;28;20389;-57
2023/04/15 04:03:58;;;;;;;544.10;303.38;;;;;;;;;;4999902;28;20025;-57
2023/04/15 04:06:23;;;;;;;545.70;301.38;;;;;;;;;;5002811;28;20413;-55
2023/04/15 04:08:48;;;;;;;529.83;293.15;;;;;;;;;;5002338;28;20042;-56
2023/04/15 04:11:14;;;;;;;509.30;284.75;;;;;;;;;;5000552;28;20037;-55
2023/04/15 04:13:39;;;;;;;528.90;298.25;;;;;;;;;;5001102;28;20080;-56
2023/04/15 04:16:04;;;;;;;545.97;312.20;;;;;;;;;;5001380;28;20049;-56
2023/04/15 04:18:33;;;;;;;560.38;308.85;;;;;;;;;;5001012;28;20041;-57
2023/04/15 04:20:59;;;;;;;531.47;301.33;;;;;;;;;;5000265;28;20052;-57
2023/04/15 04:23:24;;;;;;;534.88;293.38;;;;;;;;;;5000128;28;20030;-56
2023/04/15 04:25:49;;;;;;;550.03;290.58;;;;;;;;;;4996615;28;20041;-57
2023/04/15 04:28:14;;;;;;;520.25;288.77;;;;;;;;;;5003407;28;20048;-56
2023/04/15 04:30:40;;;;;;;563.15;318.42;;;;;;;;;;4998335;28;20036;-58
2023/04/15 04:33:06;;;;;;;656.53;333.77;;;;;;;;;;5000395;28;20030;-55
2023/04/15 04:35:33;;;;;;;527.47;312.65;;;;;;;;;;5004166;28;20438;-57
2023/04/15 04:37:59;;;;;;;569.92;309.20;;;;;;;;;;5002577;28;20021;-56
2023/04/15 04:40:24;;;;;;;526.55;310.77;;;;;;;;;;4999631;28;20131;-57
2023/04/15 04:42:49;;;;;;;562.08;307.73;;;;;;;;;;4999745;28;20456;-57
2023/04/15 04:45:15;;;;;;;559.47;312.05;;;;;;;;;;4997988;28;20056;-58
2023/04/15 04:47:40;;;;;;;531.92;301.52;;;;;;;;;;5000688;28;20017;-57
2023/04/15 04:50:06;;;;;;;540.30;322.10;;;;;;;;;;4997570;28;20135;-57
2023/04/15 04:52:31;;;;;;;532.88;315.92;;;;;;;;;;5002267;28;20018;-55
2023/04/15 04:54:56;;;;;;;548.35;318.60;;;;;;;;;;4997658;28;20022;-56
2023/04/15 04:57:21;;;;;;;537.65;282.55;;;;;;;;;;4999382;28;20038;-57
2023/04/15 04:59:47;;;;;;;532.20;297.10;;;;;;;;;;4999814;28;20199;-57
2023/04/15 05:02:12;;;;;;;567.65;328.90;;;;;;;;;;4996195;28;20045;-57
2023/04/15 05:04:37;;;;;;;555.30;304.58;;;;;;;;;;5000014;28;20024;-55
2023/04/15 05:07:03;;;;;;;561.28;323.33;;;;;;;;;;4997459;28;20117;-58
2023/04/15 05:09:31;;;;;;;557.38;321.17;;;;;;;;;;5001068;28;20401;-58
2023/04/15 05:11:56;;;;;;;529.10;308.40;;;;;;;;;;4997227;28;20034;-56
2023/04/15 05:14:21;;;;;;;555.65;338.20;;;;;;;;;;4999538;28;20032;-56
2023/04/15 05:16:46;;;;;;;576.60;306.20;;;;;;;;;;5000385;28;20146;-57
2023/04/15 05:19:12;;;;;;;538.55;291.10;;;;;;;;;;4997913;28;20029;-57
2023/04/15 05:21:37;;;;;;;534.85;287.70;;;;;;;;;;4998496;28;20353;-57
2023/04/15 05:24:02;;;;;;;547.28;307.55;;;;;;;;;;5002866;28;20054;-57
2023/04/15 05:26:28;;;;;;;562.70;329.70;;;;;;;;;;4998513;28;20089;-56
2023/04/15 05:28:53;;;;;;;615.03;334.80;;;;;;;;;;4998381;28;20040;-57
2023/04/15 05:31:19;;;;;;;555.33;334.52;;;;;;;;;;4999628;28;20080;-57
2023/04/15 05:33:44;;;;;;;556.30;315.90;;;;;;;;;;5000094;28;20042;-57
2023/04/15 05:36:10;;;;;;;576.05;321.92;;;;;;;;;;4998784;28;20103;-57
2023/04/15 05:38:36;;;;;;;555.50;333.40;;;;;;;;;;5003048;28;20032;-57
2023/04/15 05:41:01;;;;;;;548.58;336.95;;;;;;;;;;4998635;28;20588;-56
2023/04/15 05:43:26;;;;;;;526.42;295.42;;;;;;;;;;4999970;28;20029;-58
2023/04/15 05:45:52;;;;;;;567.33;312.80;;;;;;;;;;4999600;28;20034;-54
2023/04/15 05:48:17;;;;;;;579.75;341.30;;;;;;;;;;4998703;28;20034;-55
2023/04/15 05:50:42;;;;;;;575.63;334.08;;;;;;;;;;5001708;28;20092;-57
2023/04/15 05:53:08;;;;;;;582.13;332.48;;;;;;;;;;4999101;28;20895;-57
2023/04/15 05:55:33;;;;;;;575.40;336.77;;;;;;;;;;4996685;28;20116;-57
2023/04/15 05:57:58;;;;;;;559.17;330.77;;;;;;;;;;4996964;28;20746;-55
2023/04/15 06:00:24;;;;;;;552.85;321.25;;;;;;;;;;4999225;28;20125;-57
2023/04/15 06:02:49;;;;;;;582.08;314.88;;;;;;;;;;4997306;28;20377;-57
2023/04/15 06:05:14;;;;;;;556.58;329.42;;;;;;;;;;4997998;28;20024;-58
2023/04/15 06:07:40;;;;;;;583.65;357.17;;;;;;;;;;4998646;28;20022;-58
2023/04/15 06:10:06;;;;;;;571.10;358.67;;;;;;;;;;4996609;28;20018;-57
2023/04/15 06:12:31;;;;;;;556.72;347.13;;;;;;;;;;5000753;28;20143;-56
2023/04/15 06:14:56;;;;;;;582.75;359.73;;;;;;;;;;4998256;28;20022;-57
2023/04/15 06:17:22;;;;;;;590.30;354.00;;;;;;;;;;4993334;28;20413;-57
2023/04/15 06:19:49;;;;;;;565.65;320.75;;;;;;;;;;4997142;28;20438;-56
2023/04/15 06:22:14;;;;;;;598.17;320.35;;;;;;;;;;4999984;28;20053;-55
2023/04/15 06:24:40;;;;;;;555.53;325.60;;;;;;;;;;4996835;28;20698;-56
2023/04/15 06:27:05;;;;;;;533.00;293.80;;;;;;;;;;5003494;28;20713;-56
2023/04/15 06:29:30;;;;;;;499.08;271.95;;;;;;;;;;4996664;28;20053;-57
2023/04/15 06:31:55;;;;;;;520.97;279.83;;;;;;;;;;4998175;28;20142;-56
2023/04/15 06:34:21;;;;;;;561.97;301.92;;;;;;;;;;4998408;28;20245;-56
2023/04/15 06:36:47;;;;;;;536.25;288.73;;;;;;;;;;4997636;28;20038;-56
2023/04/15 06:39:12;;;;;;;519.40;283.85;;;;;;;;;;4995682;28;20032;-56
2023/04/15 06:41:37;;;;;;;545.30;287.40;;;;;;;;;;5003399;28;20038;-56
2023/04/15 06:44:02;;;;;;;518.92;286.30;;;;;;;;;;4998182;28;20512;-56
2023/04/15 06:46:28;;;;;;;530.40;281.67;;;;;;;;;;5001182;28;20045;-55
2023/04/15 06:48:53;;;;;;;566.42;295.17;;;;;;;;;;4996117;28;20033;-56
2023/04/15 06:51:18;;;;;;;551.30;291.25;;;;;;;;;;4997978;28;20206;-56
2023/04/15 06:53:44;;;;;;;562.85;287.88;;;;;;;;;;4998013;28;20113;-57
2023/04/15 06:56:09;;;;;;;531.97;274.58;;;;;;;;;;4995825;28;20046;-57
2023/04/15 06:58:35;;;;;;;524.25;288.75;;;;;;;;;;4999819;28;20025;-57
2023/04/15 07:01:00;;;;;;;560.60;295.98;;;;;;;;;;5002945;28;20037;-56
2023/04/15 07:03:25;;;;;;;534.70;304.20;;;;;;;;;;5000879;28;20100;-57
2023/04/15 07:05:51;;;;;;;524.72;288.92;;;;;;;;;;4999444;28;20428;-56
2023/04/15 07:08:16;;;;;;;551.40;297.63;;;;;;;;;;4996152;28;20026;-57
2023/04/15 07:10:41;;;;;;;543.88;305.50;;;;;;;;;;4998948;28;20088;-56
2023/04/15 07:13:07;;;;;;;624.27;339.37;;;;;;;;;;4997820;28;20567;-56
2023/04/15 07:15:33;;;;;;;589.38;352.75;;;;;;;;;;4997555;28;20283;-56
2023/04/15 07:17:58;;;;;;;554.38;348.35;;;;;;;;;;5000205;28;20026;-57
2023/04/15 07:20:23;;;;;;;587.80;324.73;;;;;;;;;;4996024;28;20034;-55
2023/04/15 07:22:48;;;;;;;572.72;330.35;;;;;;;;;;4996456;28;20036;-55
2023/04/15 07:25:14;;;;;;;600.33;345.02;;;;;;;;;;4996189;28;20022;-57
2023/04/15 07:27:39;;;;;;;558.70;316.92;;;;;;;;;;4998336;28;20025;-56
2023/04/15 07:30:05;;;;;;;556.53;337.30;;;;;;;;;;4998120;28;20021;-54
2023/04/15 07:32:30;;;;;;;617.03;356.25;;;;;;;;;;5002582;28;20501;-54
2023/04/15 07:34:56;;;;;;;593.25;347.77;;;;;;;;;;4999996;28;20034;-55
2023/04/15 07:37:22;;;;;;;593.50;348.90;;;;;;;;;;4995496;28;20033;-56
2023/04/15 07:39:47;;;;;;;623.85;354.38;;;;;;;;;;4995179;28;20041;-55
2023/04/15 07:42:14;;;;;;;617.00;354.67;;;;;;;;;;4998109;28;20026;-58
2023/04/15 07:44:39;;;;;;;603.40;353.13;;;;;;;;;;4997574;28;20034;-56
2023/04/15 07:47:04;;;;;;;597.13;352.33;;;;;;;;;;4999942;28;20045;-57
2023/04/15 07:49:30;;;;;;;600.00;370.60;;;;;;;;;;5001878;28;20070;-56
2023/04/15 07:51:56;;;;;;;639.33;387.45;;;;;;;;;;5000087;28;20034;-57
2023/04/15 07:54:21;;;;;;;623.08;383.15;;;;;;;;;;4996545;28;20034;-57
2023/04/15 07:56:47;;;;;;;630.05;384.35;;;;;;;;;;4998120;28;20042;-57
2023/04/15 07:59:14;;;;;;;670.20;394.30;;;;;;;;;;5001898;28;20101;-57
2023/04/15 08:01:39;;;;;;;630.72;380.55;;;;;;;;;;5004607;28;20604;-58
2023/04/15 08:04:04;;;;;;;617.33;376.20;;;;;;;;;;4998863;28;20037;-57
2023/04/15 08:06:29;;;;;;;606.13;368.70;;;;;;;;;;5000325;28;20283;-57
2023/04/15 08:08:55;;;;;;;671.60;386.40;;;;;;;;;;5003277;28;20076;-57
2023/04/15 08:11:20;;;;;;;638.45;382.02;;;;;;;;;;4998468;28;20385;-57
2023/04/15 08:13:45;;;;;;;645.03;394.65;;;;;;;;;;4996738;28;20029;-58
2023/04/15 08:16:18;;;;;;;651.05;390.02;;;;;;;;;;5000871;28;20136;-58
2023/04/15 08:18:43;;;;;;;652.25;385.15;;;;;;;;;;4997757;28;20750;-56
2023/04/15 08:21:09;;;;;;;603.05;387.38;;;;;;;;;;5000374;28;20042;-56
2023/04/15 08:23:34;;;;;;;653.55;385.73;;;;;;;;;;5000363;28;20032;-57
2023/04/15 08:25:59;;;;;;;619.40;386.92;;;;;;;;;;4998551;28;20049;-57
2023/04/15 08:28:25;;;;;;;575.78;351.73;;;;;;;;;;4998526;28;20029;-56
2023/04/15 08:30:51;;;;;;;661.35;390.15;;;;;;;;;;5000419;28;20064;-57
2023/04/15 08:33:17;;;;;;;594.42;361.67;;;;;;;;;;4996688;28;20057;-57
2023/04/15 08:35:42;;;;;;;554.13;313.75;;;;;;;;;;4999492;28;20046;-57
2023/04/15 08:38:07;;;;;;;540.97;286.70;;;;;;;;;;4998381;28;20040;-55
2023/04/15 08:40:39;;;;;;;561.00;299.47;;;;;;;;;;4996447;28;20030;-57
2023/04/15 08:43:04;;;;;;;724.72;330.15;;;;;;;;;;4999192;28;20265;-56
2023/04/15 08:45:30;;;;;;;539.22;311.33;;;;;;;;;;5004426;28;20075;-58
2023/04/15 08:47:56;;;;;;;584.20;329.77;;;;;;;;;;5002324;28;20030;-57
2023/04/15 08:50:21;;;;;;;522.97;280.58;;;;;;;;;;4998046;28;20412;-57
2023/04/15 08:52:46;;;;;;;645.20;313.55;;;;;;;;;;4997539;28;20446;-58
2023/04/15 08:55:12;;;;;;;566.17;279.10;;;;;;;;;;4992535;28;20445;-58
2023/04/15 08:57:38;;;;;;;574.50;285.98;;;;;;;;;;4995817;28;20124;-57
2023/04/15 09:00:04;;;;;;;561.15;292.85;;;;;;;;;;4998757;28;20049;-57
2023/04/15 09:02:30;;;;;;;516.13;263.05;;;;;;;;;;4993838;28;20445;-57
2023/04/15 09:04:55;;;;;;;530.97;276.30;;;;;;;;;;4998875;28;20026;-58
2023/04/15 09:07:21;;;;;;;544.05;281.45;;;;;;;;;;4998931;28;20554;-56
2023/04/15 09:09:47;;;;;;;588.00;286.23;;;;;;;;;;4997984;28;20421;-57
2023/04/15 09:12:12;;;;;;;581.45;307.88;;;;;;;;;;4999839;28;20033;-57
2023/04/15 09:14:39;;;;;;;586.10;290.17;;;;;;;;;;5003074;28;20022;-55
2023/04/15 09:17:04;;;;;;;552.20;285.08;;;;;;;;;;5000722;28;21283;-57
2023/04/15 09:19:32;;;;;;;550.88;293.05;;;;;;;;;;5000890;28;20038;-57
2023/04/15 09:21:58;;;;;;;610.97;315.25;;;;;;;;;;4998516;28;20041;-56
2023/04/15 09:24:25;;;;;;;576.63;312.67;;;;;;;;;;4995687;28;20100;-56
2023/04/15 09:26:51;;;;;;;570.72;286.73;;;;;;;;;;4996171;28;20769;-55
2023/04/15 09:29:17;;;;;;;598.35;318.85;;;;;;;;;;4997359;28;20024;-57
2023/04/15 09:31:42;;;;;;;613.97;315.15;;;;;;;;;;4997867;28;20521;-57
2023/04/15 09:34:08;;;;;;;650.10;321.85;;;;;;;;;;4995701;28;20026;-57
2023/04/15 09:36:51;;;;;;;584.65;308.63;;;;;;;;;;4998276;28;20679;-57
2023/04/15 09:39:16;;;;;;;604.90;303.05;;;;;;;;;;4997491;28;20086;-58
2023/04/15 09:41:43;;;;;;;614.47;312.33;;;;;;;;;;5000379;28;20030;-57
2023/04/15 09:44:21;;;;;;;616.55;302.17;;;;;;;;;;4998313;28;20499;-58
2023/04/15 09:46:46;;;;;;;650.17;321.83;;;;;;;;;;4998164;28;20092;-58
2023/04/15 09:49:12;;;;;;;622.40;302.02;;;;;;;;;;4998778;28;20030;-59
2023/04/15 09:51:37;;;;;;;662.30;306.58;;;;;;;;;;4997203;28;20113;-58
2023/04/15 09:54:03;;;;;;;629.97;304.55;;;;;;;;;;4990998;28;20056;-58
2023/04/15 09:56:33;;;;;;;635.70;295.65;;;;;;;;;;4996634;28;20125;-58
2023/04/15 09:58:59;;;;;;;665.05;309.73;;;;;;;;;;4995394;28;20021;-56
2023/04/15 10:01:24;;;;;;;647.45;308.45;;;;;;;;;;4996731;28;20091;-56
2023/04/15 10:03:51;;;;;;;629.42;285.55;;;;;;;;;;4995523;28;20030;-57
2023/04/15 10:06:16;;;;;;;604.42;287.23;;;;;;;;;;4998619;28;20108;-57
2023/04/15 10:08:42;;;;;;;610.83;287.05;;;;;;;;;;4998365;28;20425;-57
2023/04/15 10:11:07;;;;;;;630.35;282.10;;;;;;;;;;4997818;28;20418;-56
2023/04/15 10:13:34;;;;;;;602.38;278.65;;;;;;;;;;5002892;28;20048;-55
2023/04/15 10:16:04;;;;;;;593.67;277.00;;;;;;;;;;4996466;28;20046;-57
2023/04/15 10:18:31;;;;;;;601.97;282.50;;;;;;;;;;4997408;28;20125;-57
2023/04/15 10:20:56;;;;;;;624.28;297.55;;;;;;;;;;4998299;28;20412;-55
2023/04/15 10:23:23;;;;;;;625.65;279.10;;;;;;;;;;5011354;28;20033;-56
2023/04/15 10:25:50;;;;;;;591.78;257.60;;;;;;;;;;4995985;28;20053;-58
2023/04/15 10:28:16;;;;;;;618.67;269.30;;;;;;;;;;4998234;28;20101;-57
2023/04/15 10:30:42;;;;;;;655.92;280.00;;;;;;;;;;4997328;28;20307;-57
2023/04/15 10:33:08;;;;;;;733.65;290.80;;;;;;;;;;5002167;28;20053;-57
2023/04/15 10:35:33;;;;;;;608.38;267.10;;;;;;;;;;4997639;28;20434;-57
2023/04/15 10:37:59;;;;;;;621.00;281.23;;;;;;;;;;4993094;28;20234;-58
2023/04/15 10:40:30;;;;;;;598.70;268.05;;;;;;;;;;4995511;28;20034;-58
2023/04/15 10:42:58;;;;;;;751.92;279.17;;;;;;;;;;4997781;28;20045;-55
2023/04/15 10:45:27;;;;;;;588.08;265.27;;;;;;;;;;4997623;28;20030;-55
2023/04/15 10:47:56;;;;;;;631.05;264.17;;;;;;;;;;4993129;28;20022;-56
2023/04/15 10:50:21;;;;;;;587.53;242.90;;;;;;;;;;4998262;28;20031;-56
2023/04/15 10:52:49;;;;;;;663.97;257.08;;;;;;;;;;4997755;28;20021;-56
2023/04/15 10:55:15;;;;;;;602.05;254.48;;;;;;;;;;4993802;28;20022;-57
2023/04/15 10:57:41;;;;;;;600.53;244.60;;;;;;;;;;4997354;28;20044;-57
2023/04/15 11:00:10;;;;;;;628.88;256.83;;;;;;;;;;4994093;28;20501;-54
2023/04/15 11:02:51;;;;;;;590.30;249.70;;;;;;;;;;4998002;28;20027;-56
2023/04/15 11:05:17;;;;;;;644.65;266.63;;;;;;;;;;4995789;28;20026;-57
2023/04/15 11:07:45;;;;;;;690.83;271.90;;;;;;;;;;4993729;28;20040;-56
2023/04/15 11:10:10;;;;;;;623.67;261.65;;;;;;;;;;4995970;28;20402;-57
2023/04/15 11:12:36;;;;;;;607.57;251.13;;;;;;;;;;4994140;28;20010;-57
2023/04/15 11:15:21;;;;;;;572.45;243.88;;;;;;;;;;4994062;28;20289;-57
2023/04/15 11:17:46;;;;;;;619.50;262.35;;;;;;;;;;5001933;28;20519;-57
2023/04/15 11:20:14;;;;;;;615.25;260.52;;;;;;;;;;5001446;28;20027;-57
2023/04/15 11:22:46;;;;;;;661.17;257.20;;;;;;;;;;4999537;28;20024;-57
2023/04/15 11:25:20;;;;;;;596.60;255.18;;;;;;;;;;4994136;28;20127;-57
2023/04/15 11:27:46;;;;;;;691.70;268.05;;;;;;;;;;4999837;28;20037;-56
2023/04/15 11:30:19;;;;;;;625.28;276.33;;;;;;;;;;4999174;28;20033;-56
2023/04/15 11:32:44;;;;;;;621.03;261.23;;;;;;;;;;5000992;28;20954;-57
2023/04/15 11:35:09;;;;;;;622.22;280.40;;;;;;;;;;4999105;28;20034;-56
2023/04/15 11:37:34;;;;;;;644.80;285.93;;;;;;;;;;5001128;28;20065;-57
2023/04/15 11:40:01;;;;;;;656.50;284.10;;;;;;;;;;4998183;28;20300;-57
2023/04/15 11:42:26;;;;;;;639.67;283.55;;;;;;;;;;4999627;28;20030;-56
2023/04/15 11:45:05;;;;;;;675.85;291.08;;;;;;;;;;4998850;28;20029;-56
2023/04/15 11:47:30;;;;;;;685.33;295.48;;;;;;;;;;5001371;28;20643;-57
2023/04/15 11:49:55;;;;;;;623.08;265.77;;;;;;;;;;5000664;28;20029;-57
2023/04/15 11:52:21;;;;;;;587.70;227.90;;;;;;;;;;5001219;28;20034;-58
2023/04/15 11:54:46;;;;;;;611.50;249.60;;;;;;;;;;4995730;28;20268;-58
2023/04/15 11:57:12;;;;;;;596.00;259.95;;;;;;;;;;4999889;28;20576;-58
2023/04/15 11:59:41;;;;;;;642.65;259.88;;;;;;;;;;5000464;28;20124;-57
2023/04/15 12:02:11;;;;;;;621.85;266.48;;;;;;;;;;5002436;28;20030;-55
2023/04/15 12:04:36;;;;;;;618.00;263.15;;;;;;;;;;4999103;28;20080;-56
2023/04/15 12:07:06;;;;;;;631.75;274.25;;;;;;;;;;5002024;28;20042;-56
2023/04/15 12:19:13;;;;;;;230.18;73.32;;;;;;;;;;5085401;27;21253;-55
2023/04/15 12:21:40;;;;;;;519.72;215.30;;;;;;;;;;5053181;28;20684;-56
2023/04/15 12:24:06;;;;;;;548.20;223.13;;;;;;;;;;5031725;28;20040;-55
2023/04/15 12:26:48;;;;;;;509.20;202.75;;;;;;;;;;5041441;28;20037;-56
2023/04/15 12:29:15;;;;;;;489.70;181.57;;;;;;;;;;5044184;28;20029;-57
2023/04/15 12:31:51;;;;;;;512.38;204.95;;;;;;;;;;5052199;28;20024;-56
2023/04/15 12:34:16;;;;;;;582.25;237.48;;;;;;;;;;5058479;28;20478;-55
2023/04/15 12:36:42;;;;;;;584.83;230.27;;;;;;;;;;5059236;28;20029;-56
2023/04/15 12:39:07;;;;;;;608.08;242.35;;;;;;;;;;5058171;28;20033;-56
2023/04/15 12:41:33;;;;;;;586.83;260.63;;;;;;;;;;5060339;28;20035;-55
2023/04/15 12:43:58;;;;;;;552.80;230.43;;;;;;;;;;5060694;28;20472;-57
2023/04/15 12:46:24;;;;;;;581.97;258.55;;;;;;;;;;5060143;28;20314;-57
2023/04/15 12:48:50;;;;;;;629.50;268.95;;;;;;;;;;5061919;28;20032;-55
2023/04/15 12:51:15;;;;;;;639.85;284.52;;;;;;;;;;5061763;28;20037;-56
2023/04/15 12:53:40;;;;;;;768.33;284.57;;;;;;;;;;5060061;28;20028;-54
2023/04/15 12:56:06;;;;;;;666.80;287.58;;;;;;;;;;5054130;28;20466;-55
2023/04/15 12:58:31;;;;;;;664.63;273.63;;;;;;;;;;5056770;28;20046;-57
2023/04/15 13:00:56;;;;;;;686.03;294.75;;;;;;;;;;5058426;28;20626;-57
2023/04/15 13:03:21;;;;;;;582.53;240.97;;;;;;;;;;5060918;28;20079;-57
2023/04/15 13:05:47;;;;;;;588.87;240.00;;;;;;;;;;5059458;28;20399;-59
2023/04/15 13:08:12;;;;;;;615.33;249.67;;;;;;;;;;5061608;28;20320;-59
2023/04/15 13:10:37;;;;;;;596.60;254.80;;;;;;;;;;5052015;28;20385;-58
2023/04/15 13:13:03;;;;;;;722.63;264.48;;;;;;;;;;5060193;28;20027;-56
2023/04/15 13:15:28;;;;;;;670.20;294.75;;;;;;;;;;5061209;28;20159;-55
2023/04/15 13:17:54;;;;;;;595.30;263.63;;;;;;;;;;5058795;28;20032;-56
2023/04/15 13:20:19;;;;;;;699.25;302.92;;;;;;;;;;5061917;28;20392;-57
2023/04/15 13:22:45;;;;;;;678.42;314.02;;;;;;;;;;5063506;28;20020;-57
2023/04/15 13:25:10;;;;;;;716.13;340.85;;;;;;;;;;5059833;28;20777;-56
2023/04/15 13:27:35;;;;;;;719.13;337.90;;;;;;;;;;5060679;28;20048;-56
2023/04/15 13:30:01;;;;;;;705.72;343.48;;;;;;;;;;5048709;28;20170;-57
2023/04/15 13:32:26;;;;;;;725.10;334.20;;;;;;;;;;5046405;28;20067;-57
2023/04/15 13:34:51;;;;;;;693.03;323.33;;;;;;;;;;5047399;28;20367;-58
2023/04/15 13:37:16;;;;;;;742.65;347.60;;;;;;;;;;5047395;28;20287;-57
2023/04/15 13:39:42;;;;;;;740.93;331.63;;;;;;;;;;5049408;28;20021;-57
2023/04/15 13:42:07;;;;;;;730.93;352.53;;;;;;;;;;5045599;28;20260;-57
2023/04/15 13:44:32;;;;;;;659.28;294.58;;;;;;;;;;5047447;28;20471;-57
2023/04/15 13:46:57;;;;;;;721.97;333.60;;;;;;;;;;5048486;28;20036;-58
2023/04/15 13:49:23;;;;;;;692.28;324.92;;;;;;;;;;5043197;28;20013;-58
2023/04/15 13:51:48;;;;;;;692.20;316.00;;;;;;;;;;5049028;28;20463;-58
2023/04/15 13:54:13;;;;;;;688.73;319.90;;;;;;;;;;5047613;28;20033;-58